Time;durP1;ratioP1;P1;durP2;ratioP2;P2;SDS_P1;SDS_P2;PMS_P1;PMS_P2;Temp;Humidity;BMP_temperature;BMP_pressure;BME280_temperature;BME280_humidity;BME280_pressure;Samples;Min_cycle;Max_cycle;Signal;HPM_P1;HPM_P2
2021/12/31 00:00:27;;;;;;;12.55;9.73;;;;;;;7.57;64.44;95710.97;5046212;28;20696;-66
2021/12/31 00:02:55;;;;;;;15.15;10.45;;;;;;;7.42;64.62;95726.97;5047713;28;20888;-69
2021/12/31 00:05:23;;;;;;;15.18;10.18;;;;;;;8.03;63.17;95716.47;5048230;28;20216;-68
2021/12/31 00:07:51;;;;;;;16.65;11.40;;;;;;;8.23;62.04;95706.56;5047350;28;20610;-67
2021/12/31 00:10:18;;;;;;;13.98;10.50;;;;;;;8.09;62.84;95716.41;5047198;28;20201;-67
2021/12/31 00:12:45;;;;;;;14.02;10.45;;;;;;;7.88;63.59;95718.66;5047682;28;20196;-68
2021/12/31 00:15:14;;;;;;;15.45;11.30;;;;;;;7.74;63.50;95709.38;5047702;28;20235;-68
2021/12/31 00:17:41;;;;;;;14.25;10.43;;;;;;;7.65;63.23;95692.41;5047302;28;20668;-66
2021/12/31 00:20:19;;;;;;;15.18;11.32;;;;;;;7.55;63.42;95708.59;5047517;28;20202;-65
2021/12/31 00:25:15;;;;;;;16.40;11.75;;;;;;;7.92;63.60;95740.69;5042820;28;20731;-67
2021/12/31 00:27:42;;;;;;;16.00;11.15;;;;;;;7.88;63.44;95731.72;5046928;28;20358;-65
2021/12/31 00:30:10;;;;;;;14.68;10.85;;;;;;;7.81;63.45;95728.38;5045075;28;20271;-64
2021/12/31 00:32:37;;;;;;;16.42;10.98;;;;;;;8.08;63.38;95730.44;5047488;28;20224;-69
2021/12/31 00:35:06;;;;;;;15.90;11.75;;;;;;;8.38;62.35;95725.28;5047536;28;20374;-67
2021/12/31 00:37:36;;;;;;;16.70;11.20;;;;;;;8.16;62.16;95742.41;5047118;28;20210;-65
2021/12/31 00:40:07;;;;;;;17.23;11.90;;;;;;;8.05;62.88;95745.75;5047686;28;20559;-68
2021/12/31 00:42:34;;;;;;;18.52;12.00;;;;;;;7.98;62.61;95750.25;5046819;28;20208;-65
2021/12/31 00:45:02;;;;;;;17.30;11.82;;;;;;;7.20;65.15;95751.84;5034144;28;20682;-68
2021/12/31 00:47:30;;;;;;;18.65;12.60;;;;;;;7.31;64.95;95747.72;5044513;28;20703;-68
2021/12/31 00:49:57;;;;;;;17.88;12.55;;;;;;;7.73;64.09;95736.50;5045836;28;20289;-66
2021/12/31 00:52:25;;;;;;;18.75;13.35;;;;;;;7.92;63.43;95730.25;5044833;28;20788;-66
2021/12/31 00:54:52;;;;;;;18.35;12.55;;;;;;;8.04;62.79;95713.66;5051100;28;20291;-66
2021/12/31 00:57:20;;;;;;;21.33;13.65;;;;;;;7.85;63.60;95701.63;5047364;28;20200;-65
2021/12/31 00:59:47;;;;;;;17.90;12.90;;;;;;;8.05;62.98;95704.00;5034941;28;20846;-67
2021/12/31 01:02:16;;;;;;;20.20;13.65;;;;;;;7.89;63.49;95707.22;5049434;28;20200;-67
2021/12/31 01:04:43;;;;;;;19.15;13.23;;;;;;;7.95;63.59;95711.56;5049277;28;20232;-67
2021/12/31 01:07:11;;;;;;;19.98;13.75;;;;;;;8.00;62.78;95714.31;5049443;28;20200;-69
2021/12/31 01:09:38;;;;;;;21.30;13.90;;;;;;;7.87;62.81;95723.09;5049257;28;20189;-66
2021/12/31 01:12:07;;;;;;;22.40;14.20;;;;;;;7.96;63.17;95720.97;5050817;28;20694;-66
2021/12/31 01:14:38;;;;;;;21.17;13.65;;;;;;;7.89;63.14;95717.66;5046121;28;20822;-67
2021/12/31 01:17:09;;;;;;;21.23;14.00;;;;;;;8.04;62.80;95718.06;5046734;28;20279;-68
2021/12/31 01:19:51;;;;;;;20.98;14.00;;;;;;;8.12;62.21;95710.72;5050646;28;20210;-69
2021/12/31 01:22:27;;;;;;;19.60;13.68;;;;;;;7.77;62.75;95712.34;5049917;28;20278;-70
2021/12/31 01:24:54;;;;;;;21.90;14.63;;;;;;;7.64;63.23;95722.94;5051049;28;20277;-74
2021/12/31 01:27:21;;;;;;;20.67;13.52;;;;;;;7.81;63.39;95723.16;5029110;28;20199;-69
2021/12/31 01:29:48;;;;;;;22.25;14.15;;;;;;;7.99;61.99;95736.22;5046291;28;20755;-67
2021/12/31 01:32:15;;;;;;;20.65;14.05;;;;;;;8.03;62.81;95742.56;5046096;28;20663;-67
2021/12/31 01:34:43;;;;;;;20.67;13.63;;;;;;;7.87;63.00;95733.53;5045983;28;20219;-67
2021/12/31 01:37:10;;;;;;;18.95;12.93;;;;;;;7.67;62.76;95738.16;5046181;28;20299;-66
2021/12/31 01:39:38;;;;;;;19.00;12.80;;;;;;;7.43;63.29;95740.78;5046316;28;20300;-69
2021/12/31 01:42:13;;;;;;;17.70;11.30;;;;;;;7.30;63.74;95731.28;5050219;28;20228;-68
2021/12/31 01:44:52;;;;;;;17.00;10.93;;;;;;;7.28;64.13;95745.56;5049763;28;20219;-66
2021/12/31 01:47:22;;;;;;;18.25;12.35;;;;;;;7.64;63.14;95740.41;5049629;28;20207;-69
2021/12/31 01:49:58;;;;;;;16.40;11.68;;;;;;;7.19;63.93;95734.59;5049916;28;20185;-64
2021/12/31 01:52:26;;;;;;;14.60;10.30;;;;;;;7.00;63.90;95759.00;5048792;28;20648;-67
2021/12/31 01:54:53;;;;;;;13.50;9.30;;;;;;;6.98;64.28;95756.63;5045231;28;20197;-67
2021/12/31 01:57:21;;;;;;;14.98;10.90;;;;;;;7.37;63.58;95754.72;5049495;28;20230;-68
2021/12/31 01:59:48;;;;;;;14.40;10.02;;;;;;;7.49;62.51;95755.59;5049285;28;20652;-67
2021/12/31 02:02:15;;;;;;;14.43;10.02;;;;;;;7.77;62.26;95764.53;5049960;28;20238;-65
2021/12/31 02:04:42;;;;;;;13.63;10.25;;;;;;;7.32;62.76;95759.78;5039611;28;20230;-66
2021/12/31 02:07:10;;;;;;;12.77;8.70;;;;;;;7.16;63.67;95761.09;5042825;28;20266;-65
2021/12/31 02:09:45;;;;;;;13.32;9.25;;;;;;;7.53;62.91;95751.53;5046277;28;20188;-68
2021/12/31 02:12:12;;;;;;;12.95;9.43;;;;;;;7.74;61.70;95754.53;5047804;28;20200;-64
2021/12/31 02:14:39;;;;;;;13.82;8.93;;;;;;;7.60;61.85;95757.50;5046772;28;20199;-67
2021/12/31 02:17:09;;;;;;;13.10;9.95;;;;;;;7.61;62.09;95761.72;5049479;28;20232;-64
2021/12/31 02:19:38;;;;;;;13.65;9.07;;;;;;;7.40;61.90;95756.88;5035295;28;20213;-69
2021/12/31 02:22:06;;;;;;;12.63;8.70;;;;;;;7.47;61.93;95755.81;5045886;28;20221;-69
2021/12/31 02:24:36;;;;;;;12.13;8.75;;;;;;;7.44;62.21;95765.88;5034261;28;20316;-68
2021/12/31 02:27:03;;;;;;;11.98;8.57;;;;;;;7.29;62.51;95771.41;5046104;28;20197;-65
2021/12/31 02:29:31;;;;;;;13.20;8.90;;;;;;;7.49;61.48;95766.00;5047166;28;20655;-67
2021/12/31 02:31:59;;;;;;;11.90;8.35;;;;;;;7.66;60.92;95762.66;5047444;28;20633;-66
2021/12/31 02:34:26;;;;;;;12.10;8.95;;;;;;;7.50;61.17;95762.41;5046962;28;20701;-68
2021/12/31 02:36:54;;;;;;;11.57;7.68;;;;;;;7.31;62.29;95763.38;5047215;28;20211;-67
2021/12/31 02:39:22;;;;;;;10.48;6.80;;;;;;;7.31;61.84;95752.94;5049666;28;20197;-67
2021/12/31 02:41:49;;;;;;;12.75;8.38;;;;;;;7.36;61.96;95727.81;5051696;28;20200;-69
2021/12/31 02:44:16;;;;;;;13.07;8.45;;;;;;;7.40;61.27;95765.50;5053583;28;20224;-63
2021/12/31 02:46:44;;;;;;;10.98;7.47;;;;;;;7.72;61.15;95763.59;5049869;28;20223;-69
2021/12/31 02:49:11;;;;;;;11.15;7.60;;;;;;;7.74;61.17;95783.22;5047862;28;20196;-71
2021/12/31 02:51:38;;;;;;;11.25;8.05;;;;;;;7.69;60.25;95782.28;5048866;28;20218;-65
2021/12/31 02:54:08;;;;;;;10.82;7.80;;;;;;;7.84;60.28;95780.13;5048293;28;20196;-68
2021/12/31 02:56:35;;;;;;;11.30;8.40;;;;;;;7.97;59.69;95795.66;5048526;28;20252;-68
2021/12/31 02:59:03;;;;;;;14.32;9.65;;;;;;;8.07;59.91;95780.25;5048455;28;20916;-65
2021/12/31 03:01:31;;;;;;;13.20;9.25;;;;;;;8.37;59.27;95778.56;5048635;28;20586;-65
2021/12/31 03:03:59;;;;;;;14.57;9.80;;;;;;;8.18;59.67;95776.94;5046183;28;20315;-67
2021/12/31 03:06:28;;;;;;;12.23;9.00;;;;;;;7.93;60.05;95794.47;5028850;28;20307;-67
2021/12/31 03:08:57;;;;;;;11.15;7.72;;;;;;;7.32;60.80;95784.00;5044078;28;20254;-68
2021/12/31 03:11:25;;;;;;;11.55;8.15;;;;;;;7.45;59.95;95790.91;5044854;28;20262;-65
2021/12/31 03:13:54;;;;;;;11.80;8.02;;;;;;;7.08;61.04;95793.41;5040299;28;20283;-67
2021/12/31 03:16:22;;;;;;;12.60;8.55;;;;;;;7.39;60.51;95791.78;5046957;28;20198;-64
2021/12/31 03:18:50;;;;;;;12.20;8.23;;;;;;;7.07;60.88;95799.66;5047954;28;20258;-67
2021/12/31 03:21:21;;;;;;;13.30;7.60;;;;;;;7.04;60.63;95814.91;5032152;28;20739;-69
2021/12/31 03:23:50;;;;;;;10.95;7.60;;;;;;;7.15;60.23;95811.63;5044862;28;20212;-67
2021/12/31 03:26:17;;;;;;;10.15;7.65;;;;;;;7.31;60.05;95805.09;5045273;28;20344;-65
2021/12/31 03:28:45;;;;;;;10.50;7.18;;;;;;;7.27;59.55;95809.13;5044102;28;20287;-69
2021/12/31 03:31:14;;;;;;;9.77;7.32;;;;;;;7.44;59.46;95805.78;5045939;28;20283;-69
2021/12/31 03:33:41;;;;;;;10.77;7.70;;;;;;;7.13;60.01;95813.66;5047993;28;20204;-66
2021/12/31 03:36:08;;;;;;;12.23;7.13;;;;;;;6.83;60.34;95821.25;5048548;28;20279;-68
2021/12/31 03:38:36;;;;;;;10.80;7.43;;;;;;;7.08;59.84;95811.66;5047456;28;20193;-67
2021/12/31 03:41:03;;;;;;;10.27;7.38;;;;;;;7.18;59.59;95806.78;5048391;28;20216;-67
2021/12/31 03:43:30;;;;;;;10.50;7.25;;;;;;;7.19;59.27;95812.78;5047655;28;20223;-68
2021/12/31 03:45:57;;;;;;;10.10;7.30;;;;;;;6.92;59.62;95811.38;5047151;28;20770;-68
2021/12/31 03:48:25;;;;;;;9.95;6.68;;;;;;;6.50;60.90;95831.03;5047810;28;20207;-64
2021/12/31 03:50:52;;;;;;;10.35;7.55;;;;;;;6.73;60.11;95838.34;5047963;28;20667;-66
2021/12/31 03:53:19;;;;;;;10.32;7.75;;;;;;;6.73;60.48;95844.31;5047367;28;20679;-67
2021/12/31 03:55:47;;;;;;;9.75;7.45;;;;;;;7.00;59.78;95837.19;5028213;28;20205;-67
2021/12/31 03:58:14;;;;;;;10.63;7.20;;;;;;;6.49;60.16;95832.06;5043579;28;20853;-67
2021/12/31 04:00:42;;;;;;;12.15;7.70;;;;;;;6.68;60.05;95838.94;5041429;28;20579;-67
2021/12/31 04:03:11;;;;;;;12.88;7.57;;;;;;;6.86;60.12;95844.25;5041881;28;20220;-67
2021/12/31 04:05:40;;;;;;;11.55;7.93;;;;;;;6.55;59.39;95841.63;5043340;28;20216;-68
2021/12/31 04:08:09;;;;;;;11.35;6.82;;;;;;;6.58;61.00;95841.22;5046776;28;20200;-68
2021/12/31 04:10:37;;;;;;;10.98;7.28;;;;;;;6.37;60.60;95833.69;5047239;28;20207;-66
2021/12/31 04:13:04;;;;;;;11.38;7.72;;;;;;;6.39;60.94;95826.47;5047408;28;20254;-65
2021/12/31 04:15:31;;;;;;;14.80;7.07;;;;;;;6.24;61.49;95823.31;5048400;28;20196;-68
2021/12/31 04:17:58;;;;;;;11.30;7.43;;;;;;;6.44;61.73;95839.66;5046665;28;20243;-68
2021/12/31 04:20:38;;;;;;;11.20;8.15;;;;;;;7.08;59.77;95837.72;5052001;28;20195;-64
2021/12/31 04:23:12;;;;;;;12.13;7.80;;;;;;;6.67;60.78;95834.75;5051658;28;20207;-67
2021/12/31 04:25:41;;;;;;;11.45;7.90;;;;;;;6.80;60.22;95829.50;5049885;28;20302;-69
2021/12/31 04:28:08;;;;;;;11.15;7.78;;;;;;;7.04;58.88;95825.34;5034540;28;20681;-69
2021/12/31 04:30:36;;;;;;;11.27;7.93;;;;;;;7.12;58.62;95823.25;5049906;28;20200;-67
2021/12/31 04:33:03;;;;;;;10.73;7.00;;;;;;;6.94;59.60;95825.78;5049276;28;20589;-66
2021/12/31 04:35:30;;;;;;;9.90;7.10;;;;;;;7.37;58.13;95835.53;5051792;28;20181;-68
2021/12/31 04:37:58;;;;;;;12.15;7.70;;;;;;;6.98;58.21;95826.97;5050704;28;20627;-66
2021/12/31 04:40:25;;;;;;;11.35;8.07;;;;;;;7.15;58.59;95835.88;5051452;28;20188;-68
2021/12/31 04:42:52;;;;;;;10.32;7.53;;;;;;;7.37;57.93;95835.53;5051439;28;20193;-68
2021/12/31 04:45:19;;;;;;;12.65;7.70;;;;;;;7.46;57.60;95848.09;5051694;28;20212;-65
2021/12/31 04:47:47;;;;;;;10.45;8.15;;;;;;;7.24;58.49;95846.03;5050393;28;20565;-68
2021/12/31 04:50:14;;;;;;;11.32;7.95;;;;;;;7.26;58.46;95838.81;5042235;28;20200;-66
2021/12/31 04:52:41;;;;;;;12.13;8.23;;;;;;;7.16;58.88;95841.88;5042477;28;20196;-69
2021/12/31 04:55:09;;;;;;;13.13;8.50;;;;;;;7.35;57.94;95847.97;5045017;28;20244;-69
2021/12/31 04:57:36;;;;;;;10.95;7.93;;;;;;;7.07;58.31;95846.56;5047629;28;20280;-66
2021/12/31 05:00:23;;;;;;;12.40;7.90;;;;;;;7.19;58.41;95842.25;5043688;28;20200;-68
2021/12/31 05:02:50;;;;;;;11.30;8.32;;;;;;;7.35;58.62;95845.38;5050825;28;20204;-68
2021/12/31 05:05:17;;;;;;;11.35;8.40;;;;;;;7.74;56.73;95838.00;5051303;28;20220;-67
2021/12/31 05:07:44;;;;;;;10.75;7.85;;;;;;;7.64;56.92;95836.91;5050646;28;21190;-67
2021/12/31 05:10:14;;;;;;;12.52;8.30;;;;;;;7.53;57.95;95840.22;5050599;28;20201;-68
2021/12/31 05:12:41;;;;;;;13.52;8.73;;;;;;;7.30;58.07;95855.63;5050171;28;20189;-67
2021/12/31 05:15:10;;;;;;;12.48;8.20;;;;;;;7.19;58.29;95860.50;5051220;28;20251;-70
2021/12/31 05:17:37;;;;;;;11.55;7.82;;;;;;;7.08;58.83;95853.34;5050345;28;20257;-67
2021/12/31 05:20:06;;;;;;;12.18;8.13;;;;;;;6.92;58.70;95861.69;5051027;28;20203;-67
2021/12/31 05:22:34;;;;;;;10.50;7.15;;;;;;;6.98;58.90;95865.25;5050097;28;20204;-68
2021/12/31 05:25:01;;;;;;;8.55;6.20;;;;;;;6.70;59.58;95849.16;5050166;28;20224;-66
2021/12/31 05:27:28;;;;;;;9.20;6.82;;;;;;;7.04;58.96;95846.19;5050330;28;20636;-65
2021/12/31 05:29:55;;;;;;;11.32;7.57;;;;;;;7.03;58.65;95845.38;5050346;28;20274;-65
2021/12/31 05:32:22;;;;;;;9.38;6.75;;;;;;;7.21;58.18;95844.66;5046937;28;20717;-65
2021/12/31 05:34:49;;;;;;;10.52;6.97;;;;;;;7.16;58.22;95853.13;5050745;28;20204;-67
2021/12/31 05:37:16;;;;;;;9.48;7.13;;;;;;;7.40;58.13;95856.75;5049415;28;20279;-69
2021/12/31 05:39:44;;;;;;;9.63;6.70;;;;;;;7.37;58.07;95864.22;5049685;28;20192;-65
2021/12/31 05:42:12;;;;;;;10.07;7.25;;;;;;;7.39;58.12;95854.38;5050632;28;20189;-66
2021/12/31 05:44:39;;;;;;;10.27;7.63;;;;;;;7.55;57.95;95848.63;5049949;28;20297;-65
2021/12/31 05:47:07;;;;;;;10.75;7.90;;;;;;;7.64;57.76;95852.56;5049858;28;20197;-67
2021/12/31 05:49:35;;;;;;;10.98;8.23;;;;;;;7.49;57.98;95834.63;5049273;28;20195;-64
2021/12/31 05:52:03;;;;;;;13.90;8.15;;;;;;;7.56;57.38;95850.19;5050156;28;20188;-65
2021/12/31 05:54:30;;;;;;;12.60;7.95;;;;;;;7.08;58.31;95861.19;5047539;28;20628;-65
2021/12/31 05:56:57;;;;;;;13.07;8.85;;;;;;;7.13;58.76;95866.56;5050654;28;20739;-65
2021/12/31 05:59:24;;;;;;;11.18;8.20;;;;;;;7.31;58.21;95870.25;5049514;28;20226;-68
2021/12/31 06:01:51;;;;;;;12.68;8.57;;;;;;;7.58;57.30;95874.28;5049172;28;20193;-67
2021/12/31 06:04:18;;;;;;;13.93;9.45;;;;;;;7.59;57.65;95883.72;5048680;28;20715;-66
2021/12/31 06:06:45;;;;;;;12.27;9.20;;;;;;;7.61;58.14;95881.69;5050220;28;20191;-69
2021/12/31 06:09:13;;;;;;;12.43;9.43;;;;;;;7.62;61.22;95880.66;5049110;28;20312;-71
2021/12/31 06:11:41;;;;;;;12.73;9.20;;;;;;;7.87;59.92;95884.88;5046028;28;20272;-68
2021/12/31 06:14:10;;;;;;;14.35;10.23;;;;;;;7.81;59.60;95890.94;5048358;28;20200;-66
2021/12/31 06:16:42;;;;;;;16.08;9.10;;;;;;;7.32;59.57;95871.88;5049691;28;20207;-69
2021/12/31 06:19:11;;;;;;;14.20;9.20;;;;;;;7.83;60.20;95883.69;5048946;28;20208;-66
2021/12/31 06:21:41;;;;;;;14.40;9.10;;;;;;;7.86;59.09;95885.09;5050011;28;20204;-68
2021/12/31 06:24:09;;;;;;;12.13;8.70;;;;;;;7.73;58.89;95887.78;5049135;28;20200;-67
2021/12/31 06:26:37;;;;;;;13.88;9.75;;;;;;;7.76;58.28;95887.38;5049599;28;20208;-67
2021/12/31 06:29:04;;;;;;;11.25;8.63;;;;;;;7.67;58.77;95899.06;5048178;28;20184;-69
2021/12/31 06:31:31;;;;;;;15.25;9.18;;;;;;;7.66;59.56;95892.28;5049522;28;20211;-69
2021/12/31 06:33:59;;;;;;;12.68;8.70;;;;;;;7.62;59.17;95897.13;5045467;28;20205;-65
2021/12/31 06:36:27;;;;;;;11.52;8.65;;;;;;;7.47;59.54;95898.41;5049398;28;20193;-69
2021/12/31 06:38:54;;;;;;;12.93;8.98;;;;;;;7.52;60.10;95907.22;5048000;28;20580;-65
2021/12/31 06:41:21;;;;;;;11.90;8.82;;;;;;;7.51;60.31;95904.81;5048990;28;20203;-66
2021/12/31 06:43:49;;;;;;;14.00;9.30;;;;;;;7.48;59.41;95900.03;5048498;28;20208;-68
2021/12/31 06:46:16;;;;;;;15.10;9.65;;;;;;;7.69;58.95;95912.72;5049216;28;20225;-68
2021/12/31 06:48:44;;;;;;;13.05;9.20;;;;;;;7.68;58.91;95903.31;5048829;28;20188;-69
2021/12/31 06:51:11;;;;;;;13.95;9.57;;;;;;;7.73;58.02;95908.66;5048517;28;20232;-66
2021/12/31 06:53:39;;;;;;;12.27;8.93;;;;;;;7.72;57.72;95904.47;5048500;28;20200;-67
2021/12/31 06:56:06;;;;;;;12.70;9.30;;;;;;;7.85;58.80;95899.94;5048468;28;20211;-68
2021/12/31 06:58:34;;;;;;;14.02;9.90;;;;;;;7.66;58.75;95902.72;5048175;28;20189;-67
2021/12/31 07:01:01;;;;;;;15.95;9.32;;;;;;;7.73;58.72;95908.66;5048065;28;20703;-67
2021/12/31 07:03:28;;;;;;;16.48;10.00;;;;;;;7.88;58.63;95890.88;5047991;28;20645;-69
2021/12/31 07:05:55;;;;;;;17.65;10.05;;;;;;;8.17;57.22;95900.66;5048778;28;20225;-67
2021/12/31 07:08:24;;;;;;;14.85;10.52;;;;;;;8.23;57.29;95900.59;5047056;28;20208;-68
2021/12/31 07:10:51;;;;;;;13.85;9.57;;;;;;;8.25;57.20;95913.44;5047631;28;20242;-65
2021/12/31 07:13:19;;;;;;;13.45;9.85;;;;;;;8.20;57.37;95901.03;5036390;28;20204;-67
2021/12/31 07:15:51;;;;;;;15.13;10.45;;;;;;;8.23;56.79;95911.03;5038878;28;20246;-67
2021/12/31 07:18:19;;;;;;;13.07;10.00;;;;;;;8.21;57.54;95907.06;5035882;28;20780;-66
2021/12/31 07:20:47;;;;;;;15.15;10.65;;;;;;;8.28;56.84;95904.41;5036186;28;20243;-69
2021/12/31 07:23:18;;;;;;;15.60;11.00;;;;;;;7.78;58.05;95907.03;5047299;28;20208;-66
2021/12/31 07:25:45;;;;;;;16.30;10.75;;;;;;;8.13;57.65;95907.31;5044609;28;20466;-70
2021/12/31 07:28:14;;;;;;;19.35;11.30;;;;;;;7.89;58.40;95908.13;5047994;28;20199;-68
2021/12/31 07:30:43;;;;;;;14.70;9.73;;;;;;;8.16;57.80;95893.81;5046846;28;20200;-68
2021/12/31 07:33:24;;;;;;;18.70;11.15;;;;;;;8.16;58.04;95902.47;5041470;28;20258;-68
2021/12/31 07:35:52;;;;;;;16.92;10.88;;;;;;;8.35;57.51;95898.09;5039862;28;20192;-67
2021/12/31 07:38:24;;;;;;;17.63;11.73;;;;;;;8.54;57.46;95897.06;5052787;28;20633;-67
2021/12/31 07:40:53;;;;;;;16.90;11.87;;;;;;;8.71;56.76;95890.25;5042211;28;20446;-69
2021/12/31 07:43:21;;;;;;;16.13;11.97;;;;;;;8.93;56.09;95895.81;5034141;28;20447;-68
2021/12/31 07:45:50;;;;;;;17.13;11.90;;;;;;;8.78;56.71;95893.56;5027533;28;20491;-69
2021/12/31 07:48:18;;;;;;;17.33;11.90;;;;;;;8.67;56.82;95891.69;5031915;28;20436;-66
2021/12/31 07:50:46;;;;;;;25.13;13.17;;;;;;;8.85;56.32;95902.13;5037682;28;20447;-64
2021/12/31 07:53:15;;;;;;;18.10;12.00;;;;;;;9.13;55.72;95902.38;5045156;28;20445;-65
2021/12/31 07:55:42;;;;;;;150.07;101.23;;;;;;;8.99;57.46;95905.38;5042339;28;20504;-74
2021/12/31 07:58:10;;;;;;;107.80;73.97;;;;;;;8.95;56.95;95899.81;5037612;28;20443;-70
2021/12/31 08:00:40;;;;;;;37.67;25.92;;;;;;;9.13;55.83;95912.84;5038718;28;21107;-67
2021/12/31 08:03:07;;;;;;;19.63;14.07;;;;;;;9.11;56.52;95914.88;5038034;28;20297;-68
2021/12/31 08:05:35;;;;;;;22.13;14.97;;;;;;;9.16;56.09;95912.38;5038179;28;20492;-68
2021/12/31 08:08:04;;;;;;;36.07;23.53;;;;;;;9.00;55.58;95918.25;5036100;28;20845;-64
2021/12/31 08:10:33;;;;;;;37.37;25.73;;;;;;;9.29;55.81;95915.88;5041485;28;20531;-70
2021/12/31 08:13:25;;;;;;;20.47;13.30;;;;;;;9.23;55.72;95915.72;5036440;28;20443;-65
2021/12/31 08:15:54;;;;;;;21.47;14.30;;;;;;;9.00;55.51;95902.56;5029610;28;20447;-66
2021/12/31 08:18:22;;;;;;;25.50;15.00;;;;;;;9.23;56.04;95916.75;5036880;28;21020;-66
2021/12/31 08:20:49;;;;;;;26.17;15.70;;;;;;;9.06;55.99;95912.13;5035846;28;20451;-65
2021/12/31 08:23:16;;;;;;;24.03;15.63;;;;;;;9.44;55.28;95914.41;5038037;28;20485;-75
2021/12/31 08:25:44;;;;;;;23.63;15.07;;;;;;;8.94;56.32;95919.09;5036558;28;20490;-66
2021/12/31 08:28:11;;;;;;;21.43;14.97;;;;;;;9.24;56.13;95921.75;5036910;28;20577;-69
2021/12/31 08:30:39;;;;;;;20.47;14.23;;;;;;;9.15;56.00;95921.28;5034859;28;20558;-69
2021/12/31 08:33:06;;;;;;;36.67;24.40;;;;;;;9.03;57.01;95920.41;5036306;28;20447;-65
2021/12/31 08:35:35;;;;;;;140.63;100.77;;;;;;;9.11;57.13;95914.88;5029764;28;20511;-69
2021/12/31 08:38:03;;;;;;;25.17;17.40;;;;;;;9.01;56.01;95882.44;5034444;28;20434;-70
2021/12/31 08:40:30;;;;;;;19.47;14.87;;;;;;;9.36;55.96;95906.88;5034753;28;20454;-69
2021/12/31 08:42:57;;;;;;;17.23;12.70;;;;;;;9.26;56.13;95908.44;5032747;28;20810;-66
2021/12/31 08:45:32;;;;;;;18.03;13.47;;;;;;;9.93;55.01;95893.13;5033858;28;20837;-66
2021/12/31 08:48:01;;;;;;;20.53;14.50;;;;;;;10.12;54.50;95891.22;5034846;28;20459;-70
2021/12/31 08:50:28;;;;;;;21.97;15.27;;;;;;;10.67;52.83;95889.81;5035297;28;20433;-72
2021/12/31 08:52:56;;;;;;;17.93;13.70;;;;;;;11.15;51.26;95886.78;5033890;28;20501;-67
2021/12/31 08:55:24;;;;;;;71.93;46.67;;;;;;;11.64;51.29;95886.09;5034640;28;20455;-69
2021/12/31 08:57:51;;;;;;;136.33;93.27;;;;;;;12.04;50.16;95888.63;5031040;28;20444;-65
2021/12/31 09:00:19;;;;;;;18.97;12.50;;;;;;;12.54;49.22;95865.66;5036429;28;20435;-68
2021/12/31 09:02:48;;;;;;;13.97;10.37;;;;;;;12.63;49.02;95871.28;5035288;28;20470;-66
2021/12/31 09:05:17;;;;;;;22.60;11.83;;;;;;;12.49;49.31;95862.97;5038634;28;20844;-66
2021/12/31 09:07:43;;;;;;;16.53;11.23;;;;;;;12.78;49.77;95866.22;5024806;28;20440;-63
2021/12/31 09:10:12;;;;;;;13.77;10.07;;;;;;;12.64;49.56;95860.53;5036648;28;20990;-62
2021/12/31 09:12:39;;;;;;;14.07;9.97;;;;;;;12.67;49.22;95838.19;5037327;28;20546;-63
2021/12/31 09:15:07;;;;;;;16.13;11.53;;;;;;;12.63;49.23;95848.41;5038180;28;20979;-64
2021/12/31 09:17:34;;;;;;;17.30;11.10;;;;;;;12.63;47.83;95843.16;5033555;28;20839;-63
2021/12/31 09:20:04;;;;;;;16.97;9.90;;;;;;;12.42;48.86;95843.94;5036858;28;20439;-63
2021/12/31 09:22:32;;;;;;;14.03;10.33;;;;;;;12.72;48.76;95846.16;5043908;28;21048;-65
2021/12/31 09:24:59;;;;;;;13.00;9.93;;;;;;;12.76;48.00;95853.31;5047068;28;20455;-63
2021/12/31 09:27:27;;;;;;;13.23;9.37;;;;;;;12.96;46.66;95848.28;5047241;28;20438;-63
2021/12/31 09:29:56;;;;;;;14.90;11.10;;;;;;;13.27;48.15;95845.97;5044859;28;20475;-66
2021/12/31 09:32:23;;;;;;;15.17;10.27;;;;;;;14.15;46.38;95851.47;5043380;28;20816;-66
2021/12/31 09:34:50;;;;;;;14.47;8.80;;;;;;;14.21;45.23;95842.53;5045822;28;20461;-63
2021/12/31 09:37:18;;;;;;;14.10;9.80;;;;;;;13.87;44.85;95838.59;5047419;28;20590;-61
2021/12/31 09:39:46;;;;;;;15.00;10.50;;;;;;;13.71;45.22;95837.72;5046760;28;20442;-62
2021/12/31 09:42:14;;;;;;;12.23;9.07;;;;;;;13.70;45.09;95837.97;5045753;28;20532;-62
2021/12/31 09:44:43;;;;;;;34.23;28.77;;;;;;;13.08;46.16;95835.81;5046638;28;20508;-64
2021/12/31 09:47:13;;;;;;;36.57;27.30;;;;;;;12.86;47.03;95832.41;5041248;28;20841;-68
2021/12/31 09:49:40;;;;;;;40.03;30.37;;;;;;;12.80;46.46;95833.38;5031966;28;20522;-70
2021/12/31 09:52:10;;;;;;;13.47;9.50;;;;;;;12.71;46.14;95826.16;5028127;28;20545;-68
2021/12/31 09:54:48;;;;;;;13.73;10.40;;;;;;;12.23;47.78;95826.88;5040488;28;20525;-67
2021/12/31 09:57:20;;;;;;;13.17;9.67;;;;;;;12.35;48.28;95822.31;5041405;28;20547;-67
2021/12/31 09:59:48;;;;;;;12.77;9.27;;;;;;;12.58;48.09;95823.91;5042288;28;20496;-67
2021/12/31 10:02:15;;;;;;;13.87;10.20;;;;;;;12.85;47.40;95819.47;5042898;28;20459;-68
2021/12/31 10:04:55;;;;;;;14.03;10.10;;;;;;;13.42;47.07;95804.81;5045206;28;20443;-66
2021/12/31 10:07:23;;;;;;;17.03;10.00;;;;;;;13.25;45.41;95809.38;5045227;28;21008;-66
2021/12/31 10:10:20;;;;;;;13.57;9.47;;;;;;;13.46;45.67;95808.53;5045276;28;20473;-66
2021/12/31 10:12:53;;;;;;;13.73;9.57;;;;;;;13.67;45.04;95801.56;5042655;28;20489;-62
2021/12/31 10:15:24;;;;;;;64.77;46.77;;;;;;;13.64;45.45;95799.44;5042761;28;20932;-63
2021/12/31 10:17:53;;;;;;;22.20;16.07;;;;;;;13.53;46.75;95801.22;5044901;28;20594;-68
2021/12/31 10:20:21;;;;;;;12.60;9.60;;;;;;;13.86;44.56;95789.59;5042636;28;20453;-70
2021/12/31 10:22:48;;;;;;;15.03;9.93;;;;;;;13.50;45.58;95796.47;5045962;28;20457;-66
2021/12/31 10:25:22;;;;;;;14.33;9.77;;;;;;;13.17;45.95;95784.31;5045005;28;20957;-70
2021/12/31 10:27:51;;;;;;;15.93;10.00;;;;;;;13.04;46.50;95776.03;5045356;28;20480;-68
2021/12/31 10:30:26;;;;;;;13.00;9.77;;;;;;;13.58;45.63;95766.22;5043403;28;20443;-68
2021/12/31 10:32:53;;;;;;;17.07;10.00;;;;;;;13.88;49.44;95767.25;5043166;28;20443;-68
2021/12/31 10:35:22;;;;;;;11.93;8.67;;;;;;;14.16;45.48;95766.06;5045502;28;20538;-72
2021/12/31 10:37:57;;;;;;;10.90;8.30;;;;;;;14.21;45.27;95769.50;5044788;28;20466;-68
2021/12/31 10:40:28;;;;;;;14.07;8.47;;;;;;;13.90;45.12;95759.06;5042341;28;20454;-70
2021/12/31 10:43:08;;;;;;;12.47;8.93;;;;;;;13.80;45.09;95764.25;5045105;28;20797;-73
2021/12/31 10:45:35;;;;;;;12.33;8.83;;;;;;;13.33;46.49;95737.06;5045150;28;20471;-68
2021/12/31 10:48:07;;;;;;;12.63;8.43;;;;;;;14.08;45.87;95756.00;5036657;28;20489;-67
2021/12/31 10:50:35;;;;;;;12.83;9.67;;;;;;;13.79;46.28;95746.88;5045575;28;20443;-69
2021/12/31 10:53:09;;;;;;;13.13;8.97;;;;;;;14.10;45.71;95744.16;5047203;28;20831;-69
2021/12/31 10:55:41;;;;;;;13.53;8.70;;;;;;;14.48;44.87;95740.41;5047280;28;20451;-69
2021/12/31 10:58:12;;;;;;;13.63;9.07;;;;;;;14.05;45.77;95751.25;5043916;28;20494;-69
2021/12/31 11:00:44;;;;;;;14.90;8.57;;;;;;;13.93;45.41;95742.75;5046817;28;20753;-69
2021/12/31 11:03:12;;;;;;;13.47;8.43;;;;;;;13.74;46.00;95745.00;5046226;28;20443;-69
2021/12/31 11:05:41;;;;;;;13.03;8.83;;;;;;;13.81;46.30;95744.78;5048411;28;20470;-71
2021/12/31 11:08:08;;;;;;;11.00;7.90;;;;;;;13.33;46.50;95745.78;5043989;28;20446;-68
2021/12/31 11:10:40;;;;;;;14.47;8.47;;;;;;;13.49;46.81;95759.84;5040604;28;20431;-71
2021/12/31 11:13:15;;;;;;;13.03;8.80;;;;;;;13.23;47.30;95758.84;5041314;28;20819;-68
2021/12/31 11:15:44;;;;;;;12.50;8.17;;;;;;;12.93;47.57;95743.56;5044352;28;20495;-68
2021/12/31 11:18:13;;;;;;;11.00;7.57;;;;;;;13.04;47.80;95745.28;5043147;28;21025;-68
2021/12/31 11:20:41;;;;;;;11.67;8.20;;;;;;;13.02;47.87;95757.03;5040235;28;20537;-68
2021/12/31 11:23:09;;;;;;;13.80;8.30;;;;;;;12.75;48.08;95751.81;5041015;28;20450;-67
2021/12/31 11:25:54;;;;;;;13.53;8.30;;;;;;;12.96;48.13;95748.31;5036269;28;20558;-69
2021/12/31 11:28:28;;;;;;;14.73;8.30;;;;;;;13.05;48.47;95752.09;5044290;28;20481;-71
2021/12/31 11:30:56;;;;;;;15.03;7.33;;;;;;;13.21;48.26;95761.72;5042150;28;20453;-64
2021/12/31 11:33:28;;;;;;;11.17;7.60;;;;;;;13.10;49.99;95754.78;5043658;28;20469;-68
2021/12/31 11:36:09;;;;;;;12.23;7.90;;;;;;;13.27;50.54;95753.84;5037368;28;20443;-67
2021/12/31 11:38:41;;;;;;;48.10;32.47;;;;;;;13.44;48.60;95754.53;5041515;28;20512;-69